Volcan Del Teide — EAIE — position and weather

sailwx.info

Track history (hours):
 
Tides and Currents Weather Stations Pressure Air Temp Water Temp Dewpoint Dewpoint Depression Visibility Wind Speed Wind Dir Waves Ship Positions

Volcan Del Teide

Last reported at 2018-Feb-23 16:10 UTC. Time now 2018-Feb-25 14:11 UTC.
Position N 36°26' W 007°31'.

Length 175 m; draft 6.5 m.

Type: Passenger vessel. MMSI: 225416000.

Date/timePositionNaut miles runAvg speedWind from/ knotsBaromVisibWave heightAir tempDewpointWater temp
2018-Feb-23 16:10N 36°26' W 007°31'424.0
2018-Feb-23 16:00N 36°23' W 007°35'59723.3
2018-Feb-22 14:25N 29°03' W 015°33'1023.5
2018-Feb-22 13:59N 28°55' W 015°41'1123.6
2018-Feb-22 13:30N 28°47' W 015°50'1223.5
2018-Feb-22 13:00N 28°38' W 015°59'1223.4
2018-Feb-22 12:30N 28°30' W 016°08'612.1
2018-Feb-22 12:00N 28°28' W 016°15'0 0.0
2018-Feb-22 11:30N 28°28' W 016°15'0 0.0
2018-Feb-22 11:00N 28°28' W 016°15'0 0.0
2018-Feb-22 10:30N 28°28' W 016°15'0 0.9
2018-Feb-22 09:59N 28°29' W 016°14'817.9
2018-Feb-22 09:30N 28°26' W 016°05'1224.3
2018-Feb-22 09:00N 28°22' W 015°52'1223.8
2018-Feb-22 08:31N 28°17' W 015°40'1223.6
2018-Feb-22 08:01N 28°13' W 015°27'4 8.8
2018-Feb-22 07:30N 28°10' W 015°24'0 0.2
2018-Feb-22 07:00N 28°10' W 015°24'0 0.2
2018-Feb-22 06:30N 28°10' W 015°24'0 0.0
2018-Feb-22 05:56N 28°10' W 015°24'0 0.0
2018-Feb-22 05:30N 28°10' W 015°24'0 0.0
2018-Feb-22 04:59N 28°10' W 015°24'0 0.0
2018-Feb-22 04:30N 28°10' W 015°24'0 0.0
2018-Feb-22 04:00N 28°10' W 015°24'0 0.0
2018-Feb-22 03:30N 28°10' W 015°24'0 0.0
2018-Feb-22 03:00N 28°10' W 015°24'0 0.0
2018-Feb-22 02:30N 28°10' W 015°24'0 0.0
2018-Feb-22 02:00N 28°10' W 015°24'0 0.0
2018-Feb-22 01:30N 28°10' W 015°24'0 0.0
2018-Feb-22 00:59N 28°10' W 015°24'0 0.0
2018-Feb-22 00:30N 28°10' W 015°24'0 0.0
2018-Feb-22 00:00N 28°10' W 015°24'0 0.0
2018-Feb-21 23:30N 28°10' W 015°24'0 0.0
2018-Feb-21 23:00N 28°10' W 015°24'0 0.0
2018-Feb-21 22:30N 28°10' W 015°24'0 0.0
2018-Feb-21 22:00N 28°10' W 015°24'0 0.0
2018-Feb-21 21:30N 28°10' W 015°24'0 0.0
2018-Feb-21 20:59N 28°10' W 015°24'0 0.0
2018-Feb-21 20:27N 28°10' W 015°24'0 0.0
2018-Feb-21 20:00N 28°10' W 015°24'0 0.0
2018-Feb-21 19:30N 28°10' W 015°24'0 0.0
2018-Feb-21 18:59N 28°10' W 015°24'0 0.0
2018-Feb-21 18:30N 28°10' W 015°24'0 0.0
2018-Feb-21 18:00N 28°10' W 015°24'0 0.0
2018-Feb-21 17:30N 28°10' W 015°24'0 0.0
2018-Feb-21 17:00N 28°10' W 015°24'0 0.0
2018-Feb-21 16:30N 28°10' W 015°24'510.6
2018-Feb-21 16:01N 28°11' W 015°18'1223.5
2018-Feb-21 15:30N 28°17' W 015°07'1224.2
2018-Feb-21 15:01N 28°22' W 014°54'1223.8
2018-Feb-21 14:30N 28°28' W 014°42'5121.3
2018-Feb-21 12:08N 28°49' W 013°50'215.7
2018-Feb-21 11:59N 28°49' W 013°47'916.4
2018-Feb-21 11:27N 28°53' W 013°38'813.5
2018-Feb-21 10:52N 28°58' W 013°32'0 0.0
2018-Feb-21 10:23N 28°58' W 013°32'0 0.0
2018-Feb-21 09:59N 28°58' W 013°32'0 0.0
2018-Feb-21 09:21N 28°58' W 013°32'0 0.0
2018-Feb-21 08:59N 28°58' W 013°32'0 0.0
2018-Feb-21 08:30N 28°58' W 013°32'0 0.0
2018-Feb-21 08:00N 28°58' W 013°32'0 0.0
2018-Feb-21 07:30N 28°58' W 013°32'0 0.0
2018-Feb-21 07:00N 28°58' W 013°32'0 0.0
2018-Feb-21 06:29N 28°58' W 013°32'1 1.6
2018-Feb-21 05:59N 28°58' W 013°32'816.9
2018-Feb-21 05:29N 28°52' W 013°39'4718.0
2018-Feb-21 02:52N 28°34' W 014°29'718.6
2018-Feb-21 02:31N 28°31' W 014°35'918.8
2018-Feb-21 02:01N 28°27' W 014°45'918.6
2018-Feb-21 01:30N 28°22' W 014°54'918.6
2018-Feb-21 01:01N 28°18' W 015°04'918.7
2018-Feb-21 00:31N 28°14' W 015°13'1019.1
2018-Feb-21 00:00N 28°09' W 015°23'1 2.0
2018-Feb-20 23:30N 28°10' W 015°24'0 0.0
2018-Feb-20 22:59N 28°10' W 015°24'0 0.0
2018-Feb-20 22:30N 28°10' W 015°24'0 0.0
2018-Feb-20 22:00N 28°10' W 015°24'0 0.0
2018-Feb-20 21:30N 28°10' W 015°24'0 0.0
2018-Feb-20 21:00N 28°10' W 015°24'0 0.0
2018-Feb-20 20:30N 28°10' W 015°24'0 0.0
2018-Feb-20 20:00N 28°10' W 015°24'0 0.0
2018-Feb-20 19:29N 28°10' W 015°24'0 0.0
2018-Feb-20 19:00N 28°10' W 015°24'0 0.0
2018-Feb-20 18:30N 28°10' W 015°24'0 0.0
2018-Feb-20 17:56N 28°10' W 015°24'0 0.0
2018-Feb-20 17:30N 28°10' W 015°24'0 0.0
2018-Feb-20 17:00N 28°10' W 015°24'0 0.9
2018-Feb-20 16:30N 28°09' W 015°24'1019.1
2018-Feb-20 16:01N 28°13' W 015°14'1020.4
2018-Feb-20 15:30N 28°18' W 015°04'1020.5
2018-Feb-20 15:00N 28°23' W 014°54'1020.5
2018-Feb-20 14:30N 28°27' W 014°43'1020.4
2018-Feb-20 14:00N 28°32' W 014°33'4120.3
2018-Feb-20 12:00N 28°48' W 013°50'1020.8
2018-Feb-20 11:30N 28°53' W 013°40'917.6
2018-Feb-20 11:00N 28°58' W 013°32'0 0.3
2018-Feb-20 10:29N 28°58' W 013°32'0 0.0
2018-Feb-20 09:58N 28°58' W 013°32'0 0.0
2018-Feb-20 09:29N 28°58' W 013°32'0 0.0
2018-Feb-20 09:00N 28°58' W 013°32'0 0.0
2018-Feb-20 08:30N 28°58' W 013°32'0 0.0
2018-Feb-20 08:00N 28°58' W 013°32'0 0.0
2018-Feb-20 07:29N 28°58' W 013°32'0 0.0
2018-Feb-20 07:00N 28°58' W 013°32'0 0.0
2018-Feb-20 06:29N 28°58' W 013°32'1 2.1
2018-Feb-20 05:59N 28°57' W 013°32'917.2
2018-Feb-20 05:29N 28°52' W 013°40'5019.0
2018-Feb-20 02:53N 28°33' W 014°32'718.7
2018-Feb-20 02:30N 28°30' W 014°39'918.6
2018-Feb-20 02:00N 28°25' W 014°48'918.7
2018-Feb-20 01:30N 28°21' W 014°58'918.9
2018-Feb-20 01:00N 28°16' W 015°07'918.9
2018-Feb-20 00:30N 28°11' W 015°16'714.3
2018-Feb-20 00:00N 28°10' W 015°24'0 0.0
2018-Feb-19 23:29N 28°10' W 015°24'0 0.0
2018-Feb-19 23:01N 28°10' W 015°24'0 0.0
2018-Feb-19 22:31N 28°10' W 015°24'0 0.0
2018-Feb-19 22:00N 28°10' W 015°24'0 0.0
2018-Feb-19 21:30N 28°10' W 015°24'0 0.0
2018-Feb-19 21:00N 28°10' W 015°24'0 0.0
2018-Feb-19 20:30N 28°10' W 015°24'0 0.0
2018-Feb-19 19:59N 28°10' W 015°24'0 0.0
2018-Feb-19 19:31N 28°10' W 015°24'0 0.0
2018-Feb-19 19:01N 28°10' W 015°24'2 3.8
2018-Feb-19 18:30N 28°11' W 015°23'1121.3
2018-Feb-19 18:00N 28°15' W 015°35'1121.3
2018-Feb-19 17:30N 28°19' W 015°46'1121.4
2018-Feb-19 17:00N 28°22' W 015°58'1121.7
2018-Feb-19 16:30N 28°27' W 016°09'5 2.2
2018-Feb-19 14:07N 28°28' W 016°15'0 0.0
2018-Feb-19 13:54N 28°28' W 016°15'0 0.0
2018-Feb-19 13:21N 28°28' W 016°15'0 0.0
2018-Feb-19 12:14N 28°28' W 016°15'0 0.0
2018-Feb-19 11:57N 28°28' W 016°15'0 0.0
2018-Feb-19 11:17N 28°28' W 016°15'0 0.0
2018-Feb-19 10:50N 28°28' W 016°15'0 0.0
2018-Feb-19 10:29N 28°28' W 016°15'0 0.0
2018-Feb-19 09:53N 28°28' W 016°15'0 0.0
2018-Feb-19 09:23N 28°28' W 016°15'0 0.0
2018-Feb-19 09:00N 28°28' W 016°15'0 0.0
2018-Feb-19 08:30N 28°28' W 016°15'0 0.0
2018-Feb-19 08:00N 28°28' W 016°15'0 0.0
2018-Feb-19 07:30N 28°28' W 016°15'0 0.0
2018-Feb-19 07:00N 28°28' W 016°15'0 0.0
2018-Feb-19 06:30N 28°28' W 016°15'0 0.0
2018-Feb-19 06:00N 28°28' W 016°15'0 0.0
2018-Feb-19 05:30N 28°28' W 016°15'0 0.0
2018-Feb-19 05:00N 28°28' W 016°15'0 0.0
2018-Feb-19 04:30N 28°28' W 016°15'0 0.0
2018-Feb-19 04:00N 28°28' W 016°15'0 0.0
2018-Feb-19 03:30N 28°28' W 016°15'0 0.0
2018-Feb-19 03:00N 28°28' W 016°15'0 0.0
2018-Feb-19 02:30N 28°28' W 016°15'0 0.0
2018-Feb-19 02:00N 28°28' W 016°15'0 0.0
2018-Feb-19 01:30N 28°28' W 016°15'2 3.5
2018-Feb-19 01:00N 28°28' W 016°13'1223.5
2018-Feb-19 00:31N 28°24' W 016°00'1223.6
2018-Feb-19 00:00N 28°20' W 015°48'1223.4
2018-Feb-18 23:30N 28°16' W 015°36'1122.9
2018-Feb-18 23:00N 28°11' W 015°24'2 3.4
2018-Feb-18 22:30N 28°10' W 015°24'0 0.0
2018-Feb-18 22:00N 28°10' W 015°24'0 0.0
2018-Feb-18 21:30N 28°10' W 015°24'0 0.0
2018-Feb-18 20:58N 28°10' W 015°24'1 1.2
2018-Feb-18 20:30N 28°09' W 015°24'1021.0
2018-Feb-18 20:01N 28°14' W 015°13'1223.6
2018-Feb-18 19:31N 28°19' W 015°01'1223.8
2018-Feb-18 19:00N 28°24' W 014°49'1223.8
2018-Feb-18 18:30N 28°30' W 014°37'4623.5
2018-Feb-18 16:34N 28°49' W 013°50'123.8
2018-Feb-18 16:30N 28°49' W 013°48'1224.4
2018-Feb-18 16:00N 28°54' W 013°36'510.0
2018-Feb-18 15:28N 28°58' W 013°32'0 0.0
2018-Feb-18 15:00N 28°58' W 013°32'0 0.1
2018-Feb-18 14:30N 28°58' W 013°32'510.3
2018-Feb-18 14:00N 29°01' W 013°26'  
2018-Feb-15 23:18N 31°48' W 012°38'723.6
2018-Feb-15 23:00N 31°43' W 012°44'1623.4
2018-Feb-15 22:19N 31°31' W 012°57'723.3
2018-Feb-15 22:01N 31°26' W 013°02'1723.0
2018-Feb-15 21:17N 31°13' W 013°16'622.8
2018-Feb-15 21:01N 31°09' W 013°20'1122.7
2018-Feb-15 20:31N 31°00' W 013°29'1222.9
2018-Feb-15 19:59N 30°51' W 013°39'1122.9
2018-Feb-15 19:31N 30°43' W 013°47'1223.2
2018-Feb-15 19:01N 30°35' W 013°57'1323.2
2018-Feb-15 18:27N 30°26' W 014°07'1023.0
2018-Feb-15 18:00N 30°18' W 014°15'1222.9
2018-Feb-15 17:30N 30°10' W 014°24'1122.8
2018-Feb-15 17:00N 30°01' W 014°33'1222.8
2018-Feb-15 16:29N 29°52' W 014°42'1122.6
2018-Feb-15 15:59N 29°44' W 014°51'1123.0
2018-Feb-15 15:30N 29°36' W 014°59'1223.3
2018-Feb-15 15:00N 29°27' W 015°08'1123.0
2018-Feb-15 14:30N 29°19' W 015°17'1122.8
2018-Feb-15 14:00N 29°10' W 015°26'1223.0
2018-Feb-15 13:30N 29°02' W 015°35'1223.0
2018-Feb-15 13:00N 28°53' W 015°44'1122.9
2018-Feb-15 12:30N 28°45' W 015°53'1223.1
2018-Feb-15 12:00N 28°36' W 016°01'1223.5
2018-Feb-15 11:30N 28°29' W 016°11'3 6.1
2018-Feb-15 11:00N 28°28' W 016°15'0 0.0
2018-Feb-15 10:30N 28°28' W 016°15'0 0.0
2018-Feb-15 10:00N 28°28' W 016°15'2 3.6
2018-Feb-15 09:31N 28°28' W 016°13'1223.4
2018-Feb-15 09:00N 28°24' W 016°00'1223.4
2018-Feb-15 08:31N 28°20' W 015°48'1223.3
2018-Feb-15 08:01N 28°16' W 015°35'1223.1
2018-Feb-15 07:31N 28°11' W 015°23'2 3.8
2018-Feb-15 07:00N 28°10' W 015°24'0 0.0
2018-Feb-15 06:30N 28°10' W 015°24'0 0.0
2018-Feb-15 05:59N 28°10' W 015°24'0 0.0
2018-Feb-15 05:17N 28°10' W 015°24'0 0.0
2018-Feb-15 05:00N 28°10' W 015°24'0 0.0
2018-Feb-15 04:28N 28°10' W 015°24'0 0.0
2018-Feb-15 04:00N 28°10' W 015°24'0 0.0
2018-Feb-15 03:29N 28°10' W 015°24'0 0.0
2018-Feb-15 03:00N 28°10' W 015°24'0 0.0
2018-Feb-15 02:30N 28°10' W 015°24'0 0.0
2018-Feb-15 01:58N 28°10' W 015°24'0 0.0
2018-Feb-15 01:30N 28°10' W 015°24'0 0.0
2018-Feb-15 00:59N 28°10' W 015°24'0 0.0
2018-Feb-15 00:30N 28°10' W 015°24'0 0.0
2018-Feb-15 00:00N 28°10' W 015°24'0 0.0
2018-Feb-14 23:30N 28°10' W 015°24'0 0.0
2018-Feb-14 23:00N 28°10' W 015°24'0 0.0
2018-Feb-14 22:28N 28°10' W 015°24'0 0.0
2018-Feb-14 22:00N 28°10' W 015°24'0 0.0
2018-Feb-14 21:30N 28°10' W 015°24'0 0.0
2018-Feb-14 21:00N 28°10' W 015°24'0 0.0
2018-Feb-14 20:30N 28°10' W 015°24'0 0.0
2018-Feb-14 20:00N 28°10' W 015°24'0 0.0
2018-Feb-14 19:30N 28°10' W 015°24'0 0.0
2018-Feb-14 18:59N 28°10' W 015°24'0 0.0
2018-Feb-14 18:30N 28°10' W 015°24'0 0.0
2018-Feb-14 18:00N 28°10' W 015°24'0 0.0
2018-Feb-14 17:30N 28°10' W 015°24'0 0.0
2018-Feb-14 17:00N 28°10' W 015°24'0 0.1
2018-Feb-14 16:30N 28°10' W 015°24'713.8
2018-Feb-14 16:01N 28°12' W 015°17'1224.1
2018-Feb-14 15:31N 28°17' W 015°05'1224.6
2018-Feb-14 15:00N 28°23' W 014°52'1223.8
2018-Feb-14 14:30N 28°29' W 014°40'1223.3
2018-Feb-14 14:00N 28°34' W 014°29'1122.4
2018-Feb-14 13:30N 28°39' W 014°17'1121.9
2018-Feb-14 13:00N 28°44' W 014°06'1020.4
2018-Feb-14 12:30N 28°47' W 013°55'917.6
2018-Feb-14 12:00N 28°50' W 013°46'917.6
2018-Feb-14 11:30N 28°54' W 013°37'611.9
2018-Feb-14 11:00N 28°58' W 013°32'0 0.0
2018-Feb-14 10:30N 28°58' W 013°32'0 0.0
2018-Feb-14 09:58N 28°58' W 013°32'0 0.0
2018-Feb-14 09:23N 28°58' W 013°32'0 0.0
2018-Feb-14 08:57N 28°58' W 013°32'0 0.0
2018-Feb-14 08:30N 28°58' W 013°32'0 0.0
2018-Feb-14 08:00N 28°58' W 013°32'0 0.0
2018-Feb-14 07:30N 28°58' W 013°32'0 0.0
2018-Feb-14 07:00N 28°58' W 013°32'0 0.0
2018-Feb-14 06:30N 28°58' W 013°32'2 2.8
2018-Feb-14 05:57N 28°57' W 013°32'920.0
2018-Feb-14 05:30N 28°52' W 013°41'918.0
2018-Feb-14 05:00N 28°48' W 013°50'917.6
2018-Feb-14 04:30N 28°47' W 014°00'918.3
2018-Feb-14 04:00N 28°43' W 014°10'918.7
2018-Feb-14 03:30N 28°39' W 014°19'1018.9
2018-Feb-14 03:00N 28°34' W 014°29'919.0
2018-Feb-14 02:30N 28°30' W 014°38'1019.1
2018-Feb-14 02:00N 28°26' W 014°48'1018.5
2018-Feb-14 01:30N 28°21' W 014°57'918.3
2018-Feb-14 01:00N 28°17' W 015°06'918.5
2018-Feb-14 00:30N 28°13' W 015°16'816.1
2018-Feb-14 00:00N 28°09' W 015°24'0 0.6
2018-Feb-13 23:30N 28°10' W 015°24'0 0.0
2018-Feb-13 23:00N 28°10' W 015°24'0 0.0
2018-Feb-13 22:30N 28°10' W 015°24'0 0.0
2018-Feb-13 22:00N 28°10' W 015°24'0 0.0
2018-Feb-13 21:30N 28°10' W 015°24'0 0.0
2018-Feb-13 21:00N 28°10' W 015°24'0 0.0
2018-Feb-13 20:30N 28°10' W 015°24'0 0.0
2018-Feb-13 20:00N 28°10' W 015°24'0 0.0
2018-Feb-13 19:30N 28°10' W 015°24'0 0.0
2018-Feb-13 19:00N 28°10' W 015°24'0 0.0
2018-Feb-13 18:30N 28°10' W 015°24'0 0.0
2018-Feb-13 18:00N 28°10' W 015°24'0 0.0
2018-Feb-13 17:30N 28°10' W 015°24'0 0.0
2018-Feb-13 17:00N 28°10' W 015°24'5 9.2
2018-Feb-13 16:30N 28°11' W 015°19'  
Track history (hours):
 
Tides and Currents Weather Stations Pressure Air Temp Water Temp Dewpoint Dewpoint Depression Visibility Wind Speed Wind Dir Waves Ship Positions

Volcan Del Teide

Last reported at 2018-Feb-23 16:10 UTC. Time now 2018-Feb-25 14:11 UTC.
Position N 36°26' W 007°31'.

Length 175 m; draft 6.5 m.

Type: Passenger vessel. MMSI: 225416000.

Date/timePositionNaut miles runAvg speedWind from/ knotsBaromVisibWave heightAir tempDewpointWater temp
2018-Feb-23 16:10N 36°26' W 007°31'424.0
2018-Feb-23 16:00N 36°23' W 007°35'59723.3
2018-Feb-22 14:25N 29°03' W 015°33'1023.5
2018-Feb-22 13:59N 28°55' W 015°41'1123.6
2018-Feb-22 13:30N 28°47' W 015°50'1223.5
2018-Feb-22 13:00N 28°38' W 015°59'1223.4
2018-Feb-22 12:30N 28°30' W 016°08'612.1
2018-Feb-22 12:00N 28°28' W 016°15'0 0.0
2018-Feb-22 11:30N 28°28' W 016°15'0 0.0
2018-Feb-22 11:00N 28°28' W 016°15'0 0.0
2018-Feb-22 10:30N 28°28' W 016°15'0 0.9
2018-Feb-22 09:59N 28°29' W 016°14'817.9
2018-Feb-22 09:30N 28°26' W 016°05'1224.3
2018-Feb-22 09:00N 28°22' W 015°52'1223.8
2018-Feb-22 08:31N 28°17' W 015°40'1223.6
2018-Feb-22 08:01N 28°13' W 015°27'4 8.8
2018-Feb-22 07:30N 28°10' W 015°24'0 0.2
2018-Feb-22 07:00N 28°10' W 015°24'0 0.2
2018-Feb-22 06:30N 28°10' W 015°24'0 0.0
2018-Feb-22 05:56N 28°10' W 015°24'0 0.0
2018-Feb-22 05:30N 28°10' W 015°24'0 0.0
2018-Feb-22 04:59N 28°10' W 015°24'0 0.0
2018-Feb-22 04:30N 28°10' W 015°24'0 0.0
2018-Feb-22 04:00N 28°10' W 015°24'0 0.0
2018-Feb-22 03:30N 28°10' W 015°24'0 0.0
2018-Feb-22 03:00N 28°10' W 015°24'0 0.0
2018-Feb-22 02:30N 28°10' W 015°24'0 0.0
2018-Feb-22 02:00N 28°10' W 015°24'0 0.0
2018-Feb-22 01:30N 28°10' W 015°24'0 0.0
2018-Feb-22 00:59N 28°10' W 015°24'0 0.0
2018-Feb-22 00:30N 28°10' W 015°24'0 0.0
2018-Feb-22 00:00N 28°10' W 015°24'0 0.0
2018-Feb-21 23:30N 28°10' W 015°24'0 0.0
2018-Feb-21 23:00N 28°10' W 015°24'0 0.0
2018-Feb-21 22:30N 28°10' W 015°24'0 0.0
2018-Feb-21 22:00N 28°10' W 015°24'0 0.0
2018-Feb-21 21:30N 28°10' W 015°24'0 0.0
2018-Feb-21 20:59N 28°10' W 015°24'0 0.0
2018-Feb-21 20:27N 28°10' W 015°24'0 0.0
2018-Feb-21 20:00N 28°10' W 015°24'0 0.0
2018-Feb-21 19:30N 28°10' W 015°24'0 0.0
2018-Feb-21 18:59N 28°10' W 015°24'0 0.0
2018-Feb-21 18:30N 28°10' W 015°24'0 0.0
2018-Feb-21 18:00N 28°10' W 015°24'0 0.0
2018-Feb-21 17:30N 28°10' W 015°24'0 0.0
2018-Feb-21 17:00N 28°10' W 015°24'0 0.0
2018-Feb-21 16:30N 28°10' W 015°24'510.6
2018-Feb-21 16:01N 28°11' W 015°18'1223.5
2018-Feb-21 15:30N 28°17' W 015°07'1224.2
2018-Feb-21 15:01N 28°22' W 014°54'1223.8
2018-Feb-21 14:30N 28°28' W 014°42'5121.3
2018-Feb-21 12:08N 28°49' W 013°50'215.7
2018-Feb-21 11:59N 28°49' W 013°47'916.4
2018-Feb-21 11:27N 28°53' W 013°38'813.5
2018-Feb-21 10:52N 28°58' W 013°32'0 0.0
2018-Feb-21 10:23N 28°58' W 013°32'0 0.0
2018-Feb-21 09:59N 28°58' W 013°32'0 0.0
2018-Feb-21 09:21N 28°58' W 013°32'0 0.0
2018-Feb-21 08:59N 28°58' W 013°32'0 0.0
2018-Feb-21 08:30N 28°58' W 013°32'0 0.0
2018-Feb-21 08:00N 28°58' W 013°32'0 0.0
2018-Feb-21 07:30N 28°58' W 013°32'0 0.0
2018-Feb-21 07:00N 28°58' W 013°32'0 0.0
2018-Feb-21 06:29N 28°58' W 013°32'1 1.6
2018-Feb-21 05:59N 28°58' W 013°32'816.9
2018-Feb-21 05:29N 28°52' W 013°39'4718.0
2018-Feb-21 02:52N 28°34' W 014°29'718.6
2018-Feb-21 02:31N 28°31' W 014°35'918.8
2018-Feb-21 02:01N 28°27' W 014°45'918.6
2018-Feb-21 01:30N 28°22' W 014°54'918.6
2018-Feb-21 01:01N 28°18' W 015°04'918.7
2018-Feb-21 00:31N 28°14' W 015°13'1019.1
2018-Feb-21 00:00N 28°09' W 015°23'1 2.0
2018-Feb-20 23:30N 28°10' W 015°24'0 0.0
2018-Feb-20 22:59N 28°10' W 015°24'0 0.0
2018-Feb-20 22:30N 28°10' W 015°24'0 0.0
2018-Feb-20 22:00N 28°10' W 015°24'0 0.0
2018-Feb-20 21:30N 28°10' W 015°24'0 0.0
2018-Feb-20 21:00N 28°10' W 015°24'0 0.0
2018-Feb-20 20:30N 28°10' W 015°24'0 0.0
2018-Feb-20 20:00N 28°10' W 015°24'0 0.0
2018-Feb-20 19:29N 28°10' W 015°24'0 0.0
2018-Feb-20 19:00N 28°10' W 015°24'0 0.0
2018-Feb-20 18:30N 28°10' W 015°24'0 0.0
2018-Feb-20 17:56N 28°10' W 015°24'0 0.0
2018-Feb-20 17:30N 28°10' W 015°24'0 0.0
2018-Feb-20 17:00N 28°10' W 015°24'0 0.9
2018-Feb-20 16:30N 28°09' W 015°24'1019.1
2018-Feb-20 16:01N 28°13' W 015°14'1020.4
2018-Feb-20 15:30N 28°18' W 015°04'1020.5
2018-Feb-20 15:00N 28°23' W 014°54'1020.5
2018-Feb-20 14:30N 28°27' W 014°43'1020.4
2018-Feb-20 14:00N 28°32' W 014°33'4120.3
2018-Feb-20 12:00N 28°48' W 013°50'1020.8
2018-Feb-20 11:30N 28°53' W 013°40'917.6
2018-Feb-20 11:00N 28°58' W 013°32'0 0.3
2018-Feb-20 10:29N 28°58' W 013°32'0 0.0
2018-Feb-20 09:58N 28°58' W 013°32'0 0.0
2018-Feb-20 09:29N 28°58' W 013°32'0 0.0
2018-Feb-20 09:00N 28°58' W 013°32'0 0.0
2018-Feb-20 08:30N 28°58' W 013°32'0 0.0
2018-Feb-20 08:00N 28°58' W 013°32'0 0.0
2018-Feb-20 07:29N 28°58' W 013°32'0 0.0
2018-Feb-20 07:00N 28°58' W 013°32'0 0.0
2018-Feb-20 06:29N 28°58' W 013°32'1 2.1
2018-Feb-20 05:59N 28°57' W 013°32'917.2
2018-Feb-20 05:29N 28°52' W 013°40'5019.0
2018-Feb-20 02:53N 28°33' W 014°32'718.7
2018-Feb-20 02:30N 28°30' W 014°39'918.6
2018-Feb-20 02:00N 28°25' W 014°48'918.7
2018-Feb-20 01:30N 28°21' W 014°58'918.9
2018-Feb-20 01:00N 28°16' W 015°07'918.9
2018-Feb-20 00:30N 28°11' W 015°16'714.3
2018-Feb-20 00:00N 28°10' W 015°24'0 0.0
2018-Feb-19 23:29N 28°10' W 015°24'0 0.0
2018-Feb-19 23:01N 28°10' W 015°24'0 0.0
2018-Feb-19 22:31N 28°10' W 015°24'0 0.0
2018-Feb-19 22:00N 28°10' W 015°24'0 0.0
2018-Feb-19 21:30N 28°10' W 015°24'0 0.0
2018-Feb-19 21:00N 28°10' W 015°24'0 0.0
2018-Feb-19 20:30N 28°10' W 015°24'0 0.0
2018-Feb-19 19:59N 28°10' W 015°24'0 0.0
2018-Feb-19 19:31N 28°10' W 015°24'0 0.0
2018-Feb-19 19:01N 28°10' W 015°24'2 3.8
2018-Feb-19 18:30N 28°11' W 015°23'1121.3
2018-Feb-19 18:00N 28°15' W 015°35'1121.3
2018-Feb-19 17:30N 28°19' W 015°46'1121.4
2018-Feb-19 17:00N 28°22' W 015°58'1121.7
2018-Feb-19 16:30N 28°27' W 016°09'5 2.2
2018-Feb-19 14:07N 28°28' W 016°15'0 0.0
2018-Feb-19 13:54N 28°28' W 016°15'0 0.0
2018-Feb-19 13:21N 28°28' W 016°15'0 0.0
2018-Feb-19 12:14N 28°28' W 016°15'0 0.0
2018-Feb-19 11:57N 28°28' W 016°15'0 0.0
2018-Feb-19 11:17N 28°28' W 016°15'0 0.0
2018-Feb-19 10:50N 28°28' W 016°15'0 0.0
2018-Feb-19 10:29N 28°28' W 016°15'0 0.0
2018-Feb-19 09:53N 28°28' W 016°15'0 0.0
2018-Feb-19 09:23N 28°28' W 016°15'0 0.0
2018-Feb-19 09:00N 28°28' W 016°15'0 0.0
2018-Feb-19 08:30N 28°28' W 016°15'0 0.0
2018-Feb-19 08:00N 28°28' W 016°15'0 0.0
2018-Feb-19 07:30N 28°28' W 016°15'0 0.0
2018-Feb-19 07:00N 28°28' W 016°15'0 0.0
2018-Feb-19 06:30N 28°28' W 016°15'0 0.0
2018-Feb-19 06:00N 28°28' W 016°15'0 0.0
2018-Feb-19 05:30N 28°28' W 016°15'0 0.0
2018-Feb-19 05:00N 28°28' W 016°15'0 0.0
2018-Feb-19 04:30N 28°28' W 016°15'0 0.0
2018-Feb-19 04:00N 28°28' W 016°15'0 0.0
2018-Feb-19 03:30N 28°28' W 016°15'0 0.0
2018-Feb-19 03:00N 28°28' W 016°15'0 0.0
2018-Feb-19 02:30N 28°28' W 016°15'0 0.0
2018-Feb-19 02:00N 28°28' W 016°15'0 0.0
2018-Feb-19 01:30N 28°28' W 016°15'2 3.5
2018-Feb-19 01:00N 28°28' W 016°13'1223.5
2018-Feb-19 00:31N 28°24' W 016°00'1223.6
2018-Feb-19 00:00N 28°20' W 015°48'1223.4
2018-Feb-18 23:30N 28°16' W 015°36'1122.9
2018-Feb-18 23:00N 28°11' W 015°24'2 3.4
2018-Feb-18 22:30N 28°10' W 015°24'0 0.0
2018-Feb-18 22:00N 28°10' W 015°24'0 0.0
2018-Feb-18 21:30N 28°10' W 015°24'0 0.0
2018-Feb-18 20:58N 28°10' W 015°24'1 1.2
2018-Feb-18 20:30N 28°09' W 015°24'1021.0
2018-Feb-18 20:01N 28°14' W 015°13'1223.6
2018-Feb-18 19:31N 28°19' W 015°01'1223.8
2018-Feb-18 19:00N 28°24' W 014°49'1223.8
2018-Feb-18 18:30N 28°30' W 014°37'4623.5
2018-Feb-18 16:34N 28°49' W 013°50'123.8
2018-Feb-18 16:30N 28°49' W 013°48'1224.4
2018-Feb-18 16:00N 28°54' W 013°36'510.0
2018-Feb-18 15:28N 28°58' W 013°32'0 0.0
2018-Feb-18 15:00N 28°58' W 013°32'0 0.1
2018-Feb-18 14:30N 28°58' W 013°32'510.3
2018-Feb-18 14:00N 29°01' W 013°26'  
2018-Feb-15 23:18N 31°48' W 012°38'723.6
2018-Feb-15 23:00N 31°43' W 012°44'1623.4
2018-Feb-15 22:19N 31°31' W 012°57'723.3
2018-Feb-15 22:01N 31°26' W 013°02'1723.0
2018-Feb-15 21:17N 31°13' W 013°16'622.8
2018-Feb-15 21:01N 31°09' W 013°20'1122.7
2018-Feb-15 20:31N 31°00' W 013°29'1222.9
2018-Feb-15 19:59N 30°51' W 013°39'1122.9
2018-Feb-15 19:31N 30°43' W 013°47'1223.2
2018-Feb-15 19:01N 30°35' W 013°57'1323.2
2018-Feb-15 18:27N 30°26' W 014°07'1023.0
2018-Feb-15 18:00N 30°18' W 014°15'1222.9
2018-Feb-15 17:30N 30°10' W 014°24'1122.8
2018-Feb-15 17:00N 30°01' W 014°33'1222.8
2018-Feb-15 16:29N 29°52' W 014°42'1122.6
2018-Feb-15 15:59N 29°44' W 014°51'1123.0
2018-Feb-15 15:30N 29°36' W 014°59'1223.3
2018-Feb-15 15:00N 29°27' W 015°08'1123.0
2018-Feb-15 14:30N 29°19' W 015°17'1122.8
2018-Feb-15 14:00N 29°10' W 015°26'1223.0
2018-Feb-15 13:30N 29°02' W 015°35'1223.0
2018-Feb-15 13:00N 28°53' W 015°44'1122.9
2018-Feb-15 12:30N 28°45' W 015°53'1223.1
2018-Feb-15 12:00N 28°36' W 016°01'1223.5
2018-Feb-15 11:30N 28°29' W 016°11'3 6.1
2018-Feb-15 11:00N 28°28' W 016°15'0 0.0
2018-Feb-15 10:30N 28°28' W 016°15'0 0.0
2018-Feb-15 10:00N 28°28' W 016°15'2 3.6
2018-Feb-15 09:31N 28°28' W 016°13'1223.4
2018-Feb-15 09:00N 28°24' W 016°00'1223.4
2018-Feb-15 08:31N 28°20' W 015°48'1223.3
2018-Feb-15 08:01N 28°16' W 015°35'1223.1
2018-Feb-15 07:31N 28°11' W 015°23'2 3.8
2018-Feb-15 07:00N 28°10' W 015°24'0 0.0
2018-Feb-15 06:30N 28°10' W 015°24'0 0.0
2018-Feb-15 05:59N 28°10' W 015°24'0 0.0
2018-Feb-15 05:17N 28°10' W 015°24'0 0.0
2018-Feb-15 05:00N 28°10' W 015°24'0 0.0
2018-Feb-15 04:28N 28°10' W 015°24'0 0.0
2018-Feb-15 04:00N 28°10' W 015°24'0 0.0
2018-Feb-15 03:29N 28°10' W 015°24'0 0.0
2018-Feb-15 03:00N 28°10' W 015°24'0 0.0
2018-Feb-15 02:30N 28°10' W 015°24'0 0.0
2018-Feb-15 01:58N 28°10' W 015°24'0 0.0
2018-Feb-15 01:30N 28°10' W 015°24'0 0.0
2018-Feb-15 00:59N 28°10' W 015°24'0 0.0
2018-Feb-15 00:30N 28°10' W 015°24'0 0.0
2018-Feb-15 00:00N 28°10' W 015°24'0 0.0
2018-Feb-14 23:30N 28°10' W 015°24'0 0.0
2018-Feb-14 23:00N 28°10' W 015°24'0 0.0
2018-Feb-14 22:28N 28°10' W 015°24'0 0.0
2018-Feb-14 22:00N 28°10' W 015°24'0 0.0
2018-Feb-14 21:30N 28°10' W 015°24'0 0.0
2018-Feb-14 21:00N 28°10' W 015°24'0 0.0
2018-Feb-14 20:30N 28°10' W 015°24'0 0.0
2018-Feb-14 20:00N 28°10' W 015°24'0 0.0
2018-Feb-14 19:30N 28°10' W 015°24'0 0.0
2018-Feb-14 18:59N 28°10' W 015°24'0 0.0
2018-Feb-14 18:30N 28°10' W 015°24'0 0.0
2018-Feb-14 18:00N 28°10' W 015°24'0 0.0
2018-Feb-14 17:30N 28°10' W 015°24'0 0.0
2018-Feb-14 17:00N 28°10' W 015°24'0 0.1
2018-Feb-14 16:30N 28°10' W 015°24'713.8
2018-Feb-14 16:01N 28°12' W 015°17'1224.1
2018-Feb-14 15:31N 28°17' W 015°05'1224.6
2018-Feb-14 15:00N 28°23' W 014°52'1223.8
2018-Feb-14 14:30N 28°29' W 014°40'1223.3
2018-Feb-14 14:00N 28°34' W 014°29'1122.4
2018-Feb-14 13:30N 28°39' W 014°17'1121.9
2018-Feb-14 13:00N 28°44' W 014°06'1020.4
2018-Feb-14 12:30N 28°47' W 013°55'917.6
2018-Feb-14 12:00N 28°50' W 013°46'917.6
2018-Feb-14 11:30N 28°54' W 013°37'611.9
2018-Feb-14 11:00N 28°58' W 013°32'0 0.0
2018-Feb-14 10:30N 28°58' W 013°32'0 0.0
2018-Feb-14 09:58N 28°58' W 013°32'0 0.0
2018-Feb-14 09:23N 28°58' W 013°32'0 0.0
2018-Feb-14 08:57N 28°58' W 013°32'0 0.0
2018-Feb-14 08:30N 28°58' W 013°32'0 0.0
2018-Feb-14 08:00N 28°58' W 013°32'0 0.0
2018-Feb-14 07:30N 28°58' W 013°32'0 0.0
2018-Feb-14 07:00N 28°58' W 013°32'0 0.0
2018-Feb-14 06:30N 28°58' W 013°32'2 2.8
2018-Feb-14 05:57N 28°57' W 013°32'920.0
2018-Feb-14 05:30N 28°52' W 013°41'918.0
2018-Feb-14 05:00N 28°48' W 013°50'917.6
2018-Feb-14 04:30N 28°47' W 014°00'918.3
2018-Feb-14 04:00N 28°43' W 014°10'918.7
2018-Feb-14 03:30N 28°39' W 014°19'1018.9
2018-Feb-14 03:00N 28°34' W 014°29'919.0
2018-Feb-14 02:30N 28°30' W 014°38'1019.1
2018-Feb-14 02:00N 28°26' W 014°48'1018.5
2018-Feb-14 01:30N 28°21' W 014°57'918.3
2018-Feb-14 01:00N 28°17' W 015°06'918.5
2018-Feb-14 00:30N 28°13' W 015°16'816.1
2018-Feb-14 00:00N 28°09' W 015°24'0 0.6
2018-Feb-13 23:30N 28°10' W 015°24'0 0.0
2018-Feb-13 23:00N 28°10' W 015°24'0 0.0
2018-Feb-13 22:30N 28°10' W 015°24'0 0.0
2018-Feb-13 22:00N 28°10' W 015°24'0 0.0
2018-Feb-13 21:30N 28°10' W 015°24'0 0.0
2018-Feb-13 21:00N 28°10' W 015°24'0 0.0
2018-Feb-13 20:30N 28°10' W 015°24'0 0.0
2018-Feb-13 20:00N 28°10' W 015°24'0 0.0
2018-Feb-13 19:30N 28°10' W 015°24'0 0.0
2018-Feb-13 19:00N 28°10' W 015°24'0 0.0
2018-Feb-13 18:30N 28°10' W 015°24'0 0.0
2018-Feb-13 18:00N 28°10' W 015°24'0 0.0
2018-Feb-13 17:30N 28°10' W 015°24'0 0.0
2018-Feb-13 17:00N 28°10' W 015°24'5 9.2
2018-Feb-13 16:30N 28°11' W 015°19'  

Dump ship's entire track history